createdAt,value
2023-02-05T00:02:28.778Z,11.30
2023-02-05T00:05:00.915Z,12.00
2023-02-05T00:07:32.584Z,20.10
2023-02-05T00:10:05.131Z,14.37
2023-02-05T00:12:36.917Z,12.90
2023-02-05T00:15:09.123Z,15.33
2023-02-05T00:17:40.913Z,14.30
2023-02-05T00:20:12.631Z,9.37
2023-02-05T00:22:44.416Z,12.13
2023-02-05T00:25:16.277Z,16.23
2023-02-05T00:27:48.035Z,16.27
2023-02-05T00:30:20.128Z,12.73
2023-02-05T00:32:51.974Z,22.97
2023-02-05T00:35:23.663Z,10.23
2023-02-05T00:37:56.312Z,14.90
2023-02-05T00:40:28.060Z,17.92
2023-02-05T00:42:59.817Z,13.20
2023-02-05T00:45:35.370Z,21.97
2023-02-05T00:48:07.893Z,19.60
2023-02-05T00:50:39.790Z,13.30
2023-02-05T00:53:11.499Z,16.80
2023-02-05T00:55:43.267Z,19.10
2023-02-05T00:58:15.748Z,17.53
2023-02-05T01:00:49.472Z,14.93
2023-02-05T01:03:21.211Z,15.77
2023-02-05T01:05:52.933Z,22.60
2023-02-05T01:08:24.689Z,12.97
2023-02-05T01:10:56.886Z,17.73
2023-02-05T01:13:28.624Z,21.87
2023-02-05T01:16:00.346Z,15.50
2023-02-05T01:18:32.357Z,12.30
2023-02-05T01:21:04.406Z,17.10
2023-02-05T01:23:36.132Z,18.07
2023-02-05T01:26:08.046Z,15.03
2023-02-05T01:28:39.797Z,13.57
2023-02-05T01:31:11.526Z,11.63
2023-02-05T01:33:43.440Z,14.20
2023-02-05T01:36:15.134Z,14.60
2023-02-05T01:38:46.912Z,19.20
2023-02-05T01:41:19.257Z,18.00
2023-02-05T01:44:06.417Z,12.90
2023-02-05T01:46:43.271Z,11.60
2023-02-05T01:49:18.037Z,9.33
2023-02-05T01:51:51.524Z,12.50
2023-02-05T01:54:26.545Z,12.30
2023-02-05T01:57:06.238Z,13.20
2023-02-05T01:59:41.191Z,11.60
2023-02-05T02:02:13.296Z,19.30
2023-02-05T02:04:50.070Z,29.83
2023-02-05T02:07:24.523Z,11.47
2023-02-05T02:09:57.262Z,17.63
2023-02-05T02:12:33.720Z,26.33
2023-02-05T02:15:18.599Z,15.33
2023-02-05T02:18:19.433Z,16.47
2023-02-05T02:21:09.635Z,20.17
2023-02-05T02:24:07.236Z,15.40
2023-02-05T02:26:57.765Z,17.17
2023-02-05T02:29:44.428Z,16.03
2023-02-05T02:32:31.153Z,22.50
2023-02-05T02:35:58.253Z,15.70
2023-02-05T02:38:49.937Z,27.03
2023-02-05T02:41:31.411Z,18.37
2023-02-05T02:44:15.817Z,17.93
2023-02-05T02:46:59.077Z,18.90
2023-02-05T02:49:33.084Z,13.80
2023-02-05T02:52:07.905Z,15.57
2023-02-05T02:54:42.594Z,14.10
2023-02-05T02:57:17.301Z,12.00
2023-02-05T02:59:52.288Z,13.10
2023-02-05T03:02:27.005Z,13.90
2023-02-05T03:05:06.549Z,13.00
2023-02-05T03:07:42.912Z,10.93
2023-02-05T03:10:23.781Z,10.73
2023-02-05T03:12:56.473Z,13.87
2023-02-05T03:15:28.302Z,15.47
2023-02-05T03:17:59.980Z,13.80
2023-02-05T03:20:38.724Z,10.27
2023-02-05T03:23:10.553Z,16.05
2023-02-05T03:25:42.354Z,9.77
2023-02-05T03:28:14.638Z,15.47
2023-02-05T03:30:53.789Z,11.53
2023-02-05T03:34:06.920Z,12.33
2023-02-05T03:36:54.402Z,8.97
2023-02-05T03:39:33.061Z,12.10
2023-02-05T03:42:14.480Z,10.30
2023-02-05T03:45:11.088Z,11.57
2023-02-05T03:48:20.252Z,8.53
2023-02-05T03:50:54.939Z,13.53
2023-02-05T03:53:36.394Z,16.13
2023-02-05T03:56:20.809Z,14.30
2023-02-05T03:58:56.315Z,11.67
2023-02-05T04:01:29.293Z,10.50
2023-02-05T04:04:00.981Z,15.27
2023-02-05T04:06:32.698Z,15.77
2023-02-05T04:09:04.832Z,8.47
2023-02-05T04:11:37.718Z,11.00
2023-02-05T04:14:09.460Z,13.03
2023-02-05T04:16:41.310Z,13.57
2023-02-05T04:19:13.206Z,21.40
2023-02-05T04:21:44.901Z,13.23
2023-02-05T04:24:16.660Z,17.37
2023-02-05T04:26:48.386Z,10.83
2023-02-05T04:29:20.148Z,20.80
2023-02-05T04:31:51.980Z,15.90
2023-02-05T04:34:23.892Z,9.43
2023-02-05T04:36:55.610Z,14.07
2023-02-05T04:39:27.469Z,15.30
2023-02-05T04:41:59.545Z,13.97
2023-02-05T04:44:31.257Z,10.77
2023-02-05T04:47:02.988Z,11.83
2023-02-05T04:49:34.897Z,13.83
2023-02-05T04:52:07.783Z,13.40
2023-02-05T04:54:39.541Z,11.87
2023-02-05T04:57:11.277Z,9.60
2023-02-05T04:59:42.990Z,12.60
2023-02-05T05:02:14.742Z,9.93
2023-02-05T05:04:46.577Z,17.43
2023-02-05T05:07:18.269Z,13.80
2023-02-05T05:09:52.180Z,13.27
2023-02-05T05:12:24.164Z,15.32
2023-02-05T05:14:55.984Z,17.33
2023-02-05T05:17:27.903Z,14.00
2023-02-05T05:19:59.751Z,14.70
2023-02-05T05:22:31.570Z,19.93
2023-02-05T05:25:03.516Z,11.23
2023-02-05T05:27:35.217Z,16.03
2023-02-05T05:30:07.415Z,19.47
2023-02-05T05:32:39.106Z,16.15
2023-02-05T05:35:10.881Z,15.83
2023-02-05T05:37:42.606Z,16.77
2023-02-05T05:40:32.756Z,14.27
2023-02-05T05:43:23.091Z,13.80
2023-02-05T05:45:54.797Z,14.23
2023-02-05T05:48:26.876Z,11.00
2023-02-05T05:50:58.788Z,15.97
2023-02-05T05:53:31.742Z,18.63
2023-02-05T05:56:03.740Z,18.53
2023-02-05T05:58:35.680Z,17.33
2023-02-05T06:01:08.349Z,14.70
2023-02-05T06:03:40.077Z,10.00
2023-02-05T06:06:12.714Z,10.77
2023-02-05T06:08:44.633Z,17.83
2023-02-05T06:11:16.308Z,8.30
2023-02-05T06:13:48.221Z,9.13
2023-02-05T06:16:19.944Z,11.57
2023-02-05T06:18:51.780Z,12.03
2023-02-05T06:21:23.656Z,14.50
2023-02-05T06:23:55.451Z,12.00
2023-02-05T06:26:27.209Z,13.17
2023-02-05T06:29:03.209Z,16.17
2023-02-05T06:31:35.079Z,16.80
2023-02-05T06:34:06.881Z,12.37
2023-02-05T06:36:38.556Z,13.93
2023-02-05T06:39:10.254Z,11.53
2023-02-05T06:41:42.026Z,16.07
2023-02-05T06:44:13.762Z,15.50
2023-02-05T06:46:45.439Z,11.20
2023-02-05T06:49:17.289Z,13.77
2023-02-05T06:51:49.007Z,15.20
2023-02-05T06:54:21.199Z,18.87
2023-02-05T06:56:52.918Z,15.50
2023-02-05T06:59:24.719Z,16.30
2023-02-05T07:01:56.578Z,13.27
2023-02-05T07:04:30.922Z,13.80
2023-02-05T07:07:02.672Z,11.00
2023-02-05T07:09:34.474Z,11.67
2023-02-05T07:12:06.549Z,9.20
2023-02-05T07:14:39.587Z,14.30
2023-02-05T07:17:11.576Z,13.43
2023-02-05T07:19:43.338Z,16.98
2023-02-05T07:22:15.963Z,14.10
2023-02-05T07:24:47.681Z,11.50
2023-02-05T07:27:19.553Z,10.97
2023-02-05T07:29:51.232Z,13.37
2023-02-05T07:32:22.922Z,17.20
2023-02-05T07:34:54.580Z,20.53
2023-02-05T07:37:26.255Z,18.13
2023-02-05T07:39:57.930Z,22.73
2023-02-05T07:42:31.696Z,19.70
2023-02-05T07:45:03.813Z,20.40
2023-02-05T07:47:35.593Z,22.13
2023-02-05T07:50:08.784Z,19.43
2023-02-05T07:52:40.455Z,22.20
2023-02-05T07:55:12.195Z,23.50
2023-02-05T07:57:43.851Z,23.03
2023-02-05T08:00:15.698Z,20.00
2023-02-05T08:02:47.354Z,15.47
2023-02-05T08:05:19.146Z,15.00
2023-02-05T08:07:50.806Z,12.20
2023-02-05T08:10:22.503Z,12.07
2023-02-05T08:12:54.704Z,15.03
2023-02-05T08:15:28.124Z,11.38
2023-02-05T08:17:59.921Z,13.87
2023-02-05T08:20:31.834Z,19.87
2023-02-05T08:23:05.125Z,14.47
2023-02-05T08:25:38.690Z,14.33
2023-02-05T08:28:10.548Z,15.10
2023-02-05T08:30:42.250Z,13.80
2023-02-05T08:33:14.013Z,12.23
2023-02-05T08:35:45.759Z,17.33
2023-02-05T08:38:17.429Z,9.80
2023-02-05T08:40:49.201Z,13.20
2023-02-05T08:43:20.896Z,19.00
2023-02-05T08:45:52.595Z,13.07
2023-02-05T08:48:24.298Z,11.83
2023-02-05T08:50:56.023Z,13.70
2023-02-05T08:53:27.805Z,20.73
2023-02-05T08:56:01.682Z,12.60
2023-02-05T08:58:33.698Z,14.40
2023-02-05T09:01:09.226Z,18.60
2023-02-05T09:03:41.450Z,12.50
2023-02-05T09:06:15.787Z,13.13
2023-02-05T09:08:47.453Z,15.32
2023-02-05T09:11:23.010Z,12.77
2023-02-05T09:13:54.779Z,16.17
2023-02-05T09:16:26.834Z,12.77
2023-02-05T09:18:59.608Z,13.37
2023-02-05T09:21:31.476Z,14.40
2023-02-05T09:24:03.396Z,14.30
2023-02-05T09:26:35.618Z,15.00
2023-02-05T09:29:07.371Z,18.13
2023-02-05T09:31:40.808Z,18.43
2023-02-05T09:34:13.280Z,16.40
2023-02-05T09:36:44.944Z,16.77
2023-02-05T09:39:44.095Z,10.53
2023-02-05T09:42:22.857Z,10.40
2023-02-05T09:45:05.151Z,12.40
2023-02-05T09:48:03.420Z,19.80
2023-02-05T09:50:35.174Z,13.00
2023-02-05T09:53:15.309Z,20.97
2023-02-05T09:55:48.059Z,24.00
2023-02-05T09:58:31.085Z,20.03
2023-02-05T10:01:06.328Z,10.53
2023-02-05T10:03:48.425Z,18.15
2023-02-05T10:06:30.376Z,13.63
2023-02-05T10:09:39.251Z,20.73
2023-02-05T10:12:25.193Z,20.67
2023-02-05T10:15:37.307Z,16.20
2023-02-05T10:18:42.341Z,11.00
2023-02-05T10:21:28.528Z,15.10
2023-02-05T10:24:06.047Z,16.67
2023-02-05T10:26:53.826Z,13.77
2023-02-05T10:29:45.856Z,18.30
2023-02-05T10:32:23.620Z,12.40
2023-02-05T10:35:05.632Z,16.50
2023-02-05T10:37:45.329Z,17.80
2023-02-05T10:40:21.920Z,16.73
2023-02-05T10:43:18.524Z,17.17
2023-02-05T10:45:51.325Z,10.40
2023-02-05T10:48:42.141Z,14.97
2023-02-05T10:51:41.206Z,11.30
2023-02-05T10:54:33.869Z,23.20
2023-02-05T10:57:16.120Z,14.43
2023-02-05T11:00:01.861Z,17.20
2023-02-05T11:02:39.179Z,16.60
2023-02-05T11:05:36.479Z,13.93
2023-02-05T11:08:32.292Z,14.73
2023-02-05T11:11:06.139Z,16.00
2023-02-05T11:13:47.723Z,12.27
2023-02-05T11:16:20.314Z,10.33
2023-02-05T11:18:58.873Z,11.70
2023-02-05T11:21:53.139Z,11.30
2023-02-05T11:24:39.374Z,18.53
2023-02-05T11:27:30.242Z,26.73
2023-02-05T11:30:51.232Z,11.73
2023-02-05T11:33:27.676Z,12.80
2023-02-05T11:36:05.060Z,14.80
2023-02-05T11:38:51.494Z,9.90
2023-02-05T11:41:51.736Z,11.63
2023-02-05T11:44:32.123Z,19.40
2023-02-05T11:47:03.949Z,19.37
2023-02-05T11:49:38.956Z,14.00
2023-02-05T11:52:13.090Z,13.75
2023-02-05T11:54:46.893Z,12.40
2023-02-05T11:57:19.586Z,13.73
2023-02-05T12:00:00.005Z,14.10
2023-02-05T12:02:34.924Z,16.47
2023-02-05T12:05:28.841Z,12.43
2023-02-05T12:08:13.551Z,18.93
2023-02-05T12:10:57.532Z,15.10
2023-02-05T12:13:47.661Z,17.40
2023-02-05T12:16:28.646Z,14.87
2023-02-05T12:19:14.738Z,11.70
2023-02-05T12:21:55.545Z,12.20
2023-02-05T12:24:47.910Z,11.73
2023-02-05T12:27:46.777Z,12.30
2023-02-05T12:30:27.501Z,14.27
2023-02-05T12:33:11.116Z,13.63
2023-02-05T12:36:18.360Z,16.67
2023-02-05T12:39:08.433Z,15.50
2023-02-05T12:42:07.585Z,19.73
2023-02-05T12:45:04.013Z,15.00
2023-02-05T12:47:41.680Z,15.55
2023-02-05T12:50:36.216Z,9.80
2023-02-05T12:53:32.952Z,10.83
2023-02-05T12:56:38.958Z,6.38
2023-02-05T12:59:13.748Z,5.50
2023-02-05T13:01:52.610Z,5.40
2023-02-05T13:04:34.497Z,7.50
2023-02-05T13:07:30.616Z,6.30
2023-02-05T13:10:07.042Z,6.60
2023-02-05T13:12:43.234Z,8.60
2023-02-05T13:15:17.682Z,7.97
2023-02-05T13:18:05.813Z,7.73
2023-02-05T13:21:04.956Z,8.75
2023-02-05T13:23:58.443Z,6.70
2023-02-05T13:26:54.257Z,5.70
2023-02-05T13:29:31.931Z,6.33
2023-02-05T13:32:16.197Z,6.80
2023-02-05T13:34:48.214Z,5.90
2023-02-05T13:37:41.047Z,6.33
2023-02-05T13:40:42.129Z,8.10
2023-02-05T13:43:35.970Z,7.83
2023-02-05T13:46:28.889Z,8.57
2023-02-05T13:49:24.001Z,5.77
2023-02-05T13:52:10.556Z,7.63
2023-02-05T13:55:11.233Z,39.00
2023-02-05T13:58:19.429Z,26.50
2023-02-05T14:01:00.010Z,11.37
2023-02-05T14:03:35.363Z,5.23
2023-02-05T14:06:24.297Z,5.23
2023-02-05T14:09:09.305Z,5.83
2023-02-05T14:11:55.634Z,6.03
2023-02-05T14:15:08.763Z,12.10
2023-02-05T14:17:40.441Z,7.00
2023-02-05T14:20:37.029Z,6.23
2023-02-05T14:23:36.802Z,7.70
2023-02-05T14:26:11.541Z,6.97
2023-02-05T14:28:45.840Z,6.37
2023-02-05T14:31:47.108Z,6.70
2023-02-05T14:34:32.213Z,6.70
2023-02-05T14:37:04.759Z,13.20
2023-02-05T14:39:36.885Z,7.47
2023-02-05T14:42:20.861Z,10.40
2023-02-05T14:44:57.267Z,6.37
2023-02-05T14:47:33.464Z,6.90
2023-02-05T14:50:17.619Z,7.87
2023-02-05T14:53:20.296Z,7.63
2023-02-05T14:55:56.585Z,6.80
2023-02-05T14:58:35.650Z,8.87
2023-02-05T15:01:49.870Z,6.60
2023-02-05T15:04:43.128Z,9.27
2023-02-05T15:07:23.627Z,8.60
2023-02-05T15:10:03.297Z,8.50
2023-02-05T15:12:53.853Z,7.30
2023-02-05T15:15:33.469Z,8.33
2023-02-05T15:18:29.925Z,8.30
2023-02-05T15:21:02.764Z,9.80
2023-02-05T15:23:39.910Z,9.93
2023-02-05T15:26:36.596Z,7.60
2023-02-05T15:29:22.240Z,9.57
2023-02-05T15:32:02.920Z,10.63
2023-02-05T15:34:46.951Z,8.67
2023-02-05T15:37:23.812Z,7.70
2023-02-05T15:39:59.278Z,7.57
2023-02-05T15:42:39.798Z,9.37
2023-02-05T15:45:25.470Z,9.20
2023-02-05T15:48:08.809Z,8.90
2023-02-05T15:50:49.986Z,7.53
2023-02-05T15:53:35.945Z,9.27
2023-02-05T15:56:07.818Z,9.17
2023-02-05T15:58:59.173Z,9.13
2023-02-05T16:01:35.646Z,9.87
2023-02-05T16:04:28.164Z,10.40
2023-02-05T16:07:01.690Z,11.87
2023-02-05T16:09:35.359Z,11.43
2023-02-05T16:12:14.430Z,13.83
2023-02-05T16:14:47.916Z,9.20
2023-02-05T16:17:26.020Z,10.90
2023-02-05T16:20:20.092Z,8.80
2023-02-05T16:23:00.107Z,9.03
2023-02-05T16:25:37.462Z,9.77
2023-02-05T16:28:29.332Z,10.27
2023-02-05T16:31:01.738Z,10.20
2023-02-05T16:33:38.688Z,8.97
2023-02-05T16:36:20.964Z,9.20
2023-02-05T16:38:56.424Z,7.97
2023-02-05T16:41:43.461Z,17.85
2023-02-05T16:44:35.253Z,10.50
2023-02-05T16:47:12.067Z,11.70
2023-02-05T16:49:46.132Z,9.45
2023-02-05T16:52:35.899Z,9.20
2023-02-05T16:55:27.628Z,9.20
2023-02-05T16:58:05.821Z,10.57
2023-02-05T17:00:38.310Z,10.37
2023-02-05T17:03:18.851Z,10.10
2023-02-05T17:06:00.368Z,17.80
2023-02-05T17:08:36.546Z,13.00
2023-02-05T17:11:41.780Z,14.00
2023-02-05T17:14:32.317Z,16.80
2023-02-05T17:17:17.370Z,10.63
2023-02-05T17:20:09.632Z,11.47
2023-02-05T17:23:03.034Z,11.47
2023-02-05T17:25:46.707Z,7.80
2023-02-05T17:28:27.357Z,13.37
2023-02-05T17:30:59.258Z,8.57
2023-02-05T17:33:31.049Z,10.90
2023-02-05T17:36:02.761Z,10.30
2023-02-05T17:38:34.523Z,10.60
2023-02-05T17:41:24.858Z,12.20
2023-02-05T17:43:56.541Z,12.13
2023-02-05T17:46:28.520Z,9.63
2023-02-05T17:49:00.256Z,10.43
2023-02-05T17:51:32.269Z,11.10
2023-02-05T17:54:04.066Z,10.37
2023-02-05T17:56:35.869Z,11.47
2023-02-05T17:59:18.259Z,8.37
2023-02-05T18:01:50.590Z,10.30
2023-02-05T18:04:22.313Z,10.50
2023-02-05T18:06:54.125Z,9.60
2023-02-05T18:09:25.836Z,9.33
2023-02-05T18:11:57.650Z,15.40
2023-02-05T18:14:29.362Z,15.17
2023-02-05T18:17:01.187Z,13.90
2023-02-05T18:19:34.709Z,11.07
2023-02-05T18:22:07.802Z,9.70
2023-02-05T18:24:39.671Z,10.93
2023-02-05T18:27:12.173Z,13.47
2023-02-05T18:29:43.998Z,12.57
2023-02-05T18:32:15.769Z,10.37
2023-02-05T18:34:47.491Z,13.40
2023-02-05T18:37:19.444Z,20.50
2023-02-05T18:39:51.246Z,23.23
2023-02-05T18:42:23.158Z,16.77
2023-02-05T18:44:54.906Z,20.23
2023-02-05T18:47:26.813Z,19.90
2023-02-05T18:49:58.487Z,20.20
2023-02-05T18:52:31.247Z,20.23
2023-02-05T18:55:03.121Z,18.53
2023-02-05T18:57:34.810Z,18.27
2023-02-05T19:00:07.108Z,14.63
2023-02-05T19:02:40.105Z,16.27
2023-02-05T19:05:11.992Z,19.77
2023-02-05T19:07:45.342Z,18.53
2023-02-05T19:10:18.332Z,17.40
2023-02-05T19:12:50.861Z,15.57
2023-02-05T19:15:22.595Z,21.87
2023-02-05T19:17:54.709Z,23.43
2023-02-05T19:20:26.873Z,16.33
2023-02-05T19:22:58.572Z,20.50
2023-02-05T19:25:30.294Z,15.20
2023-02-05T19:28:02.004Z,14.20
2023-02-05T19:30:35.975Z,18.87
2023-02-05T19:33:08.002Z,13.07
2023-02-05T19:35:40.004Z,17.33
2023-02-05T19:38:11.811Z,12.77
2023-02-05T19:40:43.511Z,10.53
2023-02-05T19:43:17.864Z,10.17
2023-02-05T19:45:49.801Z,12.00
2023-02-05T19:48:21.560Z,12.80
2023-02-05T19:50:53.334Z,8.53
2023-02-05T19:53:25.168Z,10.73
2023-02-05T19:56:07.163Z,11.47
2023-02-05T19:58:41.202Z,11.43
2023-02-05T20:01:23.792Z,9.23
2023-02-05T20:03:58.554Z,10.87
2023-02-05T20:06:30.366Z,10.73
2023-02-05T20:09:03.962Z,14.20
2023-02-05T20:11:40.458Z,12.63
2023-02-05T20:14:12.802Z,13.23
2023-02-05T20:16:47.382Z,14.03
2023-02-05T20:19:19.766Z,16.77
2023-02-05T20:21:52.262Z,14.50
2023-02-05T20:24:23.971Z,17.80
2023-02-05T20:26:56.842Z,20.70
2023-02-05T20:29:47.213Z,22.33
2023-02-05T20:32:18.916Z,21.53
2023-02-05T20:34:50.727Z,20.47
2023-02-05T20:37:23.092Z,20.97
2023-02-05T20:39:56.827Z,20.70
2023-02-05T20:42:29.567Z,14.97
2023-02-05T20:45:01.332Z,12.93
2023-02-05T20:47:34.295Z,12.67
2023-02-05T20:50:06.418Z,14.50
2023-02-05T20:52:38.193Z,11.40
2023-02-05T20:55:10.028Z,14.80
2023-02-05T20:57:41.788Z,14.87
2023-02-05T21:00:14.722Z,16.13
2023-02-05T21:02:46.456Z,16.87
2023-02-05T21:05:18.188Z,14.40
2023-02-05T21:07:49.938Z,13.23
2023-02-05T21:10:22.229Z,13.77
2023-02-05T21:12:53.984Z,18.10
2023-02-05T21:15:26.720Z,16.63
2023-02-05T21:17:58.417Z,18.17
2023-02-05T21:20:30.178Z,15.97
2023-02-05T21:23:01.853Z,21.67
2023-02-05T21:25:35.735Z,19.70
2023-02-05T21:28:07.563Z,22.27
2023-02-05T21:30:40.322Z,18.57
2023-02-05T21:33:12.085Z,21.60
2023-02-05T21:35:43.811Z,18.50
2023-02-05T21:38:15.667Z,24.27
2023-02-05T21:40:47.428Z,20.03
2023-02-05T21:43:19.175Z,20.40
2023-02-05T21:45:50.954Z,25.17
2023-02-05T21:48:22.706Z,19.95
2023-02-05T21:50:54.364Z,21.07
2023-02-05T21:53:27.704Z,24.23
2023-02-05T21:56:04.428Z,18.73
2023-02-05T21:58:38.236Z,16.93
2023-02-05T22:01:22.480Z,15.10
2023-02-05T22:04:06.917Z,19.73
2023-02-05T22:06:38.918Z,19.00
2023-02-05T22:09:13.261Z,21.43
2023-02-05T22:11:45.303Z,16.27
2023-02-05T22:14:17.015Z,25.50
2023-02-05T22:16:48.754Z,18.30
2023-02-05T22:19:20.508Z,20.83
2023-02-05T22:21:52.698Z,18.07
2023-02-05T22:24:24.532Z,19.30
2023-02-05T22:26:56.354Z,18.67
2023-02-05T22:29:28.073Z,16.77
2023-02-05T22:31:59.924Z,21.73
2023-02-05T22:34:31.687Z,20.00
2023-02-05T22:37:03.412Z,23.70
2023-02-05T22:39:35.093Z,20.53
2023-02-05T22:42:06.818Z,28.33
2023-02-05T22:44:38.554Z,22.90
2023-02-05T22:47:10.274Z,24.20
2023-02-05T22:49:41.934Z,25.50
2023-02-05T22:52:13.680Z,26.83
2023-02-05T22:54:45.388Z,32.87
2023-02-05T22:57:17.172Z,26.00
2023-02-05T22:59:48.908Z,35.10
2023-02-05T23:02:20.679Z,33.73
2023-02-05T23:04:53.062Z,28.00
2023-02-05T23:07:24.712Z,31.90
2023-02-05T23:09:56.450Z,37.83
2023-02-05T23:12:28.182Z,35.87
2023-02-05T23:14:59.905Z,28.43
2023-02-05T23:17:31.591Z,32.47
2023-02-05T23:20:03.994Z,31.33
2023-02-05T23:22:36.328Z,39.87
2023-02-05T23:25:08.300Z,36.83
2023-02-05T23:27:41.329Z,36.10
2023-02-05T23:30:13.485Z,34.90
2023-02-05T23:32:45.165Z,30.37
2023-02-05T23:35:16.990Z,34.70
2023-02-05T23:37:48.708Z,33.43
2023-02-05T23:40:20.386Z,32.63
2023-02-05T23:42:52.281Z,35.10
2023-02-05T23:45:24.728Z,35.83
2023-02-05T23:47:56.431Z,36.67
2023-02-05T23:50:28.956Z,32.93
2023-02-05T23:53:01.206Z,34.90
2023-02-05T23:55:37.681Z,37.60
2023-02-05T23:58:10.928Z,32.70
